sensor_id;sensor_type;location;lat;lon;timestamp;pressure;altitude;pressure_sealevel;temperature;humidity
60212;BME280;46079;48.686;15.598;2023-05-08T00:01:04;100550.63;;;20.87;52.93
60212;BME280;46079;48.686;15.598;2023-05-08T00:03:30;100552.44;;;20.87;53.21
60212;BME280;46079;48.686;15.598;2023-05-08T00:05:55;100548.94;;;20.86;53.20
60212;BME280;46079;48.686;15.598;2023-05-08T00:08:21;100552.28;;;20.88;53.34
60212;BME280;46079;48.686;15.598;2023-05-08T00:10:47;100556.72;;;20.88;53.35
60212;BME280;46079;48.686;15.598;2023-05-08T00:13:13;100555.88;;;20.87;53.47
60212;BME280;46079;48.686;15.598;2023-05-08T00:15:38;100550.63;;;20.87;53.64
60212;BME280;46079;48.686;15.598;2023-05-08T00:18:04;100544.38;;;20.88;53.88
60212;BME280;46079;48.686;15.598;2023-05-08T00:20:29;100543.41;;;20.90;53.56
60212;BME280;46079;48.686;15.598;2023-05-08T00:22:55;100536.50;;;20.88;53.33
60212;BME280;46079;48.686;15.598;2023-05-08T00:25:22;100547.03;;;20.88;53.43
60212;BME280;46079;48.686;15.598;2023-05-08T00:27:47;100547.75;;;20.91;53.40
60212;BME280;46079;48.686;15.598;2023-05-08T00:30:13;100544.28;;;20.90;53.41
60212;BME280;46079;48.686;15.598;2023-05-08T00:32:39;100543.41;;;20.90;53.35
60212;BME280;46079;48.686;15.598;2023-05-08T00:35:04;100547.75;;;20.91;53.34
60212;BME280;46079;48.686;15.598;2023-05-08T00:37:30;100543.41;;;20.90;53.33
60212;BME280;46079;48.686;15.598;2023-05-08T00:39:55;100547.75;;;20.91;53.22
60212;BME280;46079;48.686;15.598;2023-05-08T00:42:21;100544.28;;;20.90;53.67
60212;BME280;46079;48.686;15.598;2023-05-08T00:44:46;100546.06;;;20.90;53.27
60212;BME280;46079;48.686;15.598;2023-05-08T00:47:12;100548.69;;;20.90;53.06
60212;BME280;46079;48.686;15.598;2023-05-08T00:49:37;100540.69;;;20.91;53.40
60212;BME280;46079;48.686;15.598;2023-05-08T00:52:04;100551.19;;;20.91;53.51
60212;BME280;46079;48.686;15.598;2023-05-08T00:54:34;100543.41;;;20.90;53.21
60212;BME280;46079;48.686;15.598;2023-05-08T00:57:01;100549.53;;;20.90;53.37
60212;BME280;46079;48.686;15.598;2023-05-08T00:59:28;100553.09;;;20.89;53.33
60212;BME280;46079;48.686;15.598;2023-05-08T01:01:53;100549.66;;;20.88;53.25
60212;BME280;46079;48.686;15.598;2023-05-08T01:04:20;100555.63;;;20.91;53.46
60212;BME280;46079;48.686;15.598;2023-05-08T01:06:48;100553.94;;;20.90;53.33
60212;BME280;46079;48.686;15.598;2023-05-08T01:09:14;100554.91;;;20.88;53.26
60212;BME280;46079;48.686;15.598;2023-05-08T01:14:41;100553.09;;;20.89;53.27
60212;BME280;46079;48.686;15.598;2023-05-08T01:28:53;100554.81;;;20.90;53.90
60212;BME280;46079;48.686;15.598;2023-05-08T01:34:28;100554.81;;;20.90;53.74
60212;BME280;46079;48.686;15.598;2023-05-08T01:39:43;100558.25;;;20.91;53.58
60212;BME280;46079;48.686;15.598;2023-05-08T01:45:20;100560.88;;;20.91;53.83
60212;BME280;46079;48.686;15.598;2023-05-08T01:47:59;100565.31;;;20.90;53.87
60212;BME280;46079;48.686;15.598;2023-05-08T01:50:44;100561.72;;;20.91;53.89
60212;BME280;46079;48.686;15.598;2023-05-08T01:53:27;100561.72;;;20.91;53.54
60212;BME280;46079;48.686;15.598;2023-05-08T01:55:58;100565.16;;;20.92;53.51
60212;BME280;46079;48.686;15.598;2023-05-08T01:58:25;100566.16;;;20.91;53.79
60212;BME280;46079;48.686;15.598;2023-05-08T02:00:52;100568.78;;;20.91;53.40
60212;BME280;46079;48.686;15.598;2023-05-08T02:03:20;100575.69;;;20.92;53.33
60212;BME280;46079;48.686;15.598;2023-05-08T02:05:47;100563.63;;;20.89;53.50
60212;BME280;46079;48.686;15.598;2023-05-08T02:08:16;100569.72;;;20.90;53.42
60212;BME280;46079;48.686;15.598;2023-05-08T02:10:43;100569.72;;;20.90;53.35
60212;BME280;46079;48.686;15.598;2023-05-08T02:13:11;100568.06;;;20.88;53.80
60212;BME280;46079;48.686;15.598;2023-05-08T02:15:38;100577.59;;;20.90;53.61
60212;BME280;46079;48.686;15.598;2023-05-08T02:18:07;100573.31;;;20.88;53.60
60212;BME280;46079;48.686;15.598;2023-05-08T02:20:33;100568.06;;;20.88;53.54
60212;BME280;46079;48.686;15.598;2023-05-08T02:22:59;100566.41;;;20.87;53.47
60212;BME280;46079;48.686;15.598;2023-05-08T02:25:27;100572.50;;;20.88;53.51
60212;BME280;46079;48.686;15.598;2023-05-08T02:27:54;100571.53;;;20.89;53.45
60212;BME280;46079;48.686;15.598;2023-05-08T02:30:23;100570.84;;;20.87;53.35
60212;BME280;46079;48.686;15.598;2023-05-08T02:32:49;100582.19;;;20.87;53.41
60212;BME280;46079;48.686;15.598;2023-05-08T02:35:18;100580.50;;;20.86;53.30
60212;BME280;46079;48.686;15.598;2023-05-08T02:37:47;100577.84;;;20.86;53.51
60212;BME280;46079;48.686;15.598;2023-05-08T02:40:16;100577.84;;;20.86;53.44
60212;BME280;46079;48.686;15.598;2023-05-08T02:42:42;100576.91;;;20.87;53.69
60212;BME280;46079;48.686;15.598;2023-05-08T02:45:09;100575.22;;;20.86;53.65
60212;BME280;46079;48.686;15.598;2023-05-08T02:47:51;100576.91;;;20.87;53.69
60212;BME280;46079;48.686;15.598;2023-05-08T02:52:49;100575.94;;;20.88;54.26
60212;BME280;46079;48.686;15.598;2023-05-08T02:55:33;100581.22;;;20.88;54.02
60212;BME280;46079;48.686;15.598;2023-05-08T03:01:01;100584.66;;;20.89;53.47
60212;BME280;46079;48.686;15.598;2023-05-08T03:03:41;100579.56;;;20.87;53.57
60212;BME280;46079;48.686;15.598;2023-05-08T03:06:12;100584.81;;;20.87;53.74
60212;BME280;46079;48.686;15.598;2023-05-08T03:08:39;100587.44;;;20.87;53.49
60212;BME280;46079;48.686;15.598;2023-05-08T03:11:13;100587.44;;;20.87;53.58
60212;BME280;46079;48.686;15.598;2023-05-08T03:13:40;100586.59;;;20.87;53.81
60212;BME280;46079;48.686;15.598;2023-05-08T03:16:10;100586.59;;;20.87;53.57
60212;BME280;46079;48.686;15.598;2023-05-08T03:18:48;100587.44;;;20.87;53.62
60212;BME280;46079;48.686;15.598;2023-05-08T03:21:18;100591.88;;;20.87;53.57
60212;BME280;46079;48.686;15.598;2023-05-08T03:23:46;100588.38;;;20.86;53.65
60212;BME280;46079;48.686;15.598;2023-05-08T03:26:16;100581.47;;;20.85;53.66
60212;BME280;46079;48.686;15.598;2023-05-08T03:28:46;100590.19;;;20.86;53.55
60212;BME280;46079;48.686;15.598;2023-05-08T03:31:12;100589.34;;;20.85;53.43
60212;BME280;46079;48.686;15.598;2023-05-08T03:33:40;100592.94;;;20.84;53.74
60212;BME280;46079;48.686;15.598;2023-05-08T03:36:07;100594.59;;;20.85;53.61
60212;BME280;46079;48.686;15.598;2023-05-08T03:38:34;100586.00;;;20.83;53.47
60212;BME280;46079;48.686;15.598;2023-05-08T03:41:00;100594.59;;;20.85;53.75
60212;BME280;46079;48.686;15.598;2023-05-08T03:43:26;100594.59;;;20.85;53.38
60212;BME280;46079;48.686;15.598;2023-05-08T03:45:53;100599.97;;;20.84;53.45
60212;BME280;46079;48.686;15.598;2023-05-08T03:48:19;100605.13;;;20.85;53.29
60212;BME280;46079;48.686;15.598;2023-05-08T03:50:48;100606.09;;;20.84;53.62
60212;BME280;46079;48.686;15.598;2023-05-08T03:53:14;100593.06;;;20.83;53.46
60212;BME280;46079;48.686;15.598;2023-05-08T03:55:39;100599.03;;;20.85;53.56
60212;BME280;46079;48.686;15.598;2023-05-08T04:03:55;100592.09;;;20.84;53.49
60212;BME280;46079;48.686;15.598;2023-05-08T04:06:30;100604.28;;;20.85;53.53
60212;BME280;46079;48.686;15.598;2023-05-08T04:12:21;100607.75;;;20.85;53.65
60212;BME280;46079;48.686;15.598;2023-05-08T04:14:54;100603.47;;;20.84;53.70
60212;BME280;46079;48.686;15.598;2023-05-08T04:17:28;100605.13;;;20.85;53.76
60212;BME280;46079;48.686;15.598;2023-05-08T04:20:02;100613.97;;;20.84;53.64
60212;BME280;46079;48.686;15.598;2023-05-08T04:22:31;100606.22;;;20.83;53.70
60212;BME280;46079;48.686;15.598;2023-05-08T04:24:58;100607.88;;;20.84;53.67
60212;BME280;46079;48.686;15.598;2023-05-08T04:27:25;100616.63;;;20.84;53.78
60212;BME280;46079;48.686;15.598;2023-05-08T04:29:52;100613.97;;;20.84;53.45
60212;BME280;46079;48.686;15.598;2023-05-08T04:32:18;100608.72;;;20.84;53.40
60212;BME280;46079;48.686;15.598;2023-05-08T04:34:45;100624.50;;;20.84;53.83
60212;BME280;46079;48.686;15.598;2023-05-08T04:37:23;100629.75;;;20.84;53.81
60212;BME280;46079;48.686;15.598;2023-05-08T04:39:51;100627.25;;;20.83;53.56
60212;BME280;46079;48.686;15.598;2023-05-08T04:42:17;100633.34;;;20.83;53.65
60212;BME280;46079;48.686;15.598;2023-05-08T04:44:42;100640.38;;;20.83;53.51
60212;BME280;46079;48.686;15.598;2023-05-08T04:47:08;100638.59;;;20.83;53.65
60212;BME280;46079;48.686;15.598;2023-05-08T04:49:33;100642.03;;;20.84;53.56
60212;BME280;46079;48.686;15.598;2023-05-08T04:51:59;100639.56;;;20.82;49.80
60212;BME280;46079;48.686;15.598;2023-05-08T04:54:25;100641.72;;;20.77;47.22
60212;BME280;46079;48.686;15.598;2023-05-08T04:56:50;100649.13;;;20.72;45.75
60212;BME280;46079;48.686;15.598;2023-05-08T04:59:15;100649.63;;;20.66;45.07
60212;BME280;46079;48.686;15.598;2023-05-08T05:01:41;100641.50;;;20.58;44.14
60212;BME280;46079;48.686;15.598;2023-05-08T05:04:06;100638.38;;;20.53;43.23
60212;BME280;46079;48.686;15.598;2023-05-08T05:06:32;100642.31;;;20.47;43.04
60212;BME280;46079;48.686;15.598;2023-05-08T05:08:58;100645.31;;;20.42;42.51
60212;BME280;46079;48.686;15.598;2023-05-08T05:11:23;100648.66;;;20.44;44.90
60212;BME280;46079;48.686;15.598;2023-05-08T05:13:49;100656.28;;;20.48;46.99
60212;BME280;46079;48.686;15.598;2023-05-08T05:16:14;100655.94;;;20.52;47.99
60212;BME280;46079;48.686;15.598;2023-05-08T05:18:39;100663.50;;;20.57;47.93
60212;BME280;46079;48.686;15.598;2023-05-08T05:21:05;100658.00;;;20.60;48.30
60212;BME280;46079;48.686;15.598;2023-05-08T05:23:30;100667.19;;;20.65;48.14
60212;BME280;46079;48.686;15.598;2023-05-08T05:25:56;100658.09;;;20.70;48.46
60212;BME280;46079;48.686;15.598;2023-05-08T05:28:21;100648.16;;;20.73;48.69
60212;BME280;46079;48.686;15.598;2023-05-08T05:30:47;100657.50;;;20.77;48.51
60212;BME280;46079;48.686;15.598;2023-05-08T05:33:13;100654.63;;;20.80;48.46
60212;BME280;46079;48.686;15.598;2023-05-08T05:35:38;100658.69;;;20.84;48.41
60212;BME280;46079;48.686;15.598;2023-05-08T05:38:03;100662.72;;;20.88;48.59
60212;BME280;46079;48.686;15.598;2023-05-08T05:40:29;100662.47;;;20.92;48.65
60212;BME280;46079;48.686;15.598;2023-05-08T05:42:55;100671.09;;;20.94;48.71
60212;BME280;46079;48.686;15.598;2023-05-08T05:45:23;100672.50;;;20.98;49.05
60212;BME280;46079;48.686;15.598;2023-05-08T05:47:49;100670.59;;;21.00;48.78
60212;BME280;46079;48.686;15.598;2023-05-08T05:50:17;100669.50;;;21.02;48.66
60212;BME280;46079;48.686;15.598;2023-05-08T05:52:43;100672.84;;;21.04;48.82
60212;BME280;46079;48.686;15.598;2023-05-08T05:55:08;100677.97;;;21.06;48.79
60212;BME280;46079;48.686;15.598;2023-05-08T05:57:34;100663.75;;;21.08;48.67
60212;BME280;46079;48.686;15.598;2023-05-08T05:59:59;100682.75;;;21.12;48.74
60212;BME280;46079;48.686;15.598;2023-05-08T06:02:25;100679.16;;;21.13;48.91
60212;BME280;46079;48.686;15.598;2023-05-08T06:04:51;100676.41;;;21.15;48.50
60212;BME280;46079;48.686;15.598;2023-05-08T06:07:16;100683.22;;;21.17;48.10
60212;BME280;46079;48.686;15.598;2023-05-08T06:09:42;100674.22;;;21.20;47.95
60212;BME280;46079;48.686;15.598;2023-05-08T06:12:07;100676.75;;;21.21;47.63
60212;BME280;46079;48.686;15.598;2023-05-08T06:14:33;100678.28;;;21.24;47.61
60212;BME280;46079;48.686;15.598;2023-05-08T06:16:58;100673.03;;;21.24;47.52
60212;BME280;46079;48.686;15.598;2023-05-08T06:19:24;100681.66;;;21.26;47.28
60212;BME280;46079;48.686;15.598;2023-05-08T06:21:50;100683.31;;;21.27;46.97
60212;BME280;46079;48.686;15.598;2023-05-08T06:24:16;100689.41;;;21.27;46.98
60212;BME280;46079;48.686;15.598;2023-05-08T06:26:41;100696.47;;;21.27;46.64
60212;BME280;46079;48.686;15.598;2023-05-08T06:29:07;100696.34;;;21.28;46.16
60212;BME280;46079;48.686;15.598;2023-05-08T06:31:32;100696.34;;;21.28;46.04
60212;BME280;46079;48.686;15.598;2023-05-08T06:33:58;100691.19;;;21.27;46.36
60212;BME280;46079;48.686;15.598;2023-05-08T06:36:23;100702.56;;;21.27;46.17
60212;BME280;46079;48.686;15.598;2023-05-08T06:38:48;100700.75;;;21.28;46.71
60212;BME280;46079;48.686;15.598;2023-05-08T06:41:14;100697.03;;;21.30;46.78
60212;BME280;46079;48.686;15.598;2023-05-08T06:43:39;100693.47;;;21.31;46.55
60212;BME280;46079;48.686;15.598;2023-05-08T06:46:05;100698.59;;;21.33;46.32
60212;BME280;46079;48.686;15.598;2023-05-08T06:48:30;100693.47;;;21.31;46.33
60212;BME280;46079;48.686;15.598;2023-05-08T06:50:55;100697.19;;;21.29;46.12
60212;BME280;46079;48.686;15.598;2023-05-08T06:53:21;100699.09;;;21.27;46.34
60212;BME280;46079;48.686;15.598;2023-05-08T06:55:46;100699.81;;;21.29;46.46
60212;BME280;46079;48.686;15.598;2023-05-08T06:58:12;100697.03;;;21.30;46.55
60212;BME280;46079;48.686;15.598;2023-05-08T07:00:37;100700.53;;;21.31;46.27
60212;BME280;46079;48.686;15.598;2023-05-08T07:03:02;100696.22;;;21.30;46.66
60212;BME280;46079;48.686;15.598;2023-05-08T07:05:28;100699.66;;;21.30;46.82
60212;BME280;46079;48.686;15.598;2023-05-08T07:07:53;100687.38;;;21.31;46.93
60212;BME280;46079;48.686;15.598;2023-05-08T07:10:22;100683.63;;;21.33;46.94
60212;BME280;46079;48.686;15.598;2023-05-08T07:12:48;100686.41;;;21.32;46.91
60212;BME280;46079;48.686;15.598;2023-05-08T07:15:13;100696.09;;;21.31;46.78
60212;BME280;46079;48.686;15.598;2023-05-08T07:17:39;100695.38;;;21.29;46.89
60212;BME280;46079;48.686;15.598;2023-05-08T07:20:06;100693.81;;;21.27;47.00
60212;BME280;46079;48.686;15.598;2023-05-08T07:22:32;100694.91;;;21.24;47.26
60212;BME280;46079;48.686;15.598;2023-05-08T07:24:57;100693.25;;;21.23;47.14
60212;BME280;46079;48.686;15.598;2023-05-08T07:27:23;100701.16;;;21.23;47.16
60212;BME280;46079;48.686;15.598;2023-05-08T07:29:49;100698.63;;;21.22;47.48
60212;BME280;46079;48.686;15.598;2023-05-08T07:32:14;100707.34;;;21.22;47.42
60212;BME280;46079;48.686;15.598;2023-05-08T07:34:40;100711.66;;;21.23;47.61
60212;BME280;46079;48.686;15.598;2023-05-08T07:37:06;100710.69;;;21.24;47.10
60212;BME280;46079;48.686;15.598;2023-05-08T07:39:31;100712.38;;;21.25;47.27
60212;BME280;46079;48.686;15.598;2023-05-08T07:41:57;100710.44;;;21.27;47.32
60212;BME280;46079;48.686;15.598;2023-05-08T07:44:22;100707.81;;;21.27;47.48
60212;BME280;46079;48.686;15.598;2023-05-08T07:46:48;100709.50;;;21.28;47.58
60212;BME280;46079;48.686;15.598;2023-05-08T07:49:16;100720.03;;;21.28;47.59
60212;BME280;46079;48.686;15.598;2023-05-08T07:51:41;100713.78;;;21.29;47.47
60212;BME280;46079;48.686;15.598;2023-05-08T07:54:07;100712.97;;;21.29;47.60
60212;BME280;46079;48.686;15.598;2023-05-08T07:56:32;100707.81;;;21.27;47.62
60212;BME280;46079;48.686;15.598;2023-05-08T07:58:58;100710.44;;;21.27;47.48
60212;BME280;46079;48.686;15.598;2023-05-08T08:01:23;100708.66;;;21.28;47.52
60212;BME280;46079;48.686;15.598;2023-05-08T08:03:48;100708.78;;;21.26;47.64
60212;BME280;46079;48.686;15.598;2023-05-08T08:06:14;100719.31;;;21.26;47.59
60212;BME280;46079;48.686;15.598;2023-05-08T08:08:39;100711.53;;;21.25;47.27
60212;BME280;46079;48.686;15.598;2023-05-08T08:11:05;100712.38;;;21.25;47.21
60212;BME280;46079;48.686;15.598;2023-05-08T08:13:31;100710.69;;;21.24;47.30
60212;BME280;46079;48.686;15.598;2023-05-08T08:15:57;100698.50;;;21.23;47.42
60212;BME280;46079;48.686;15.598;2023-05-08T08:18:23;100709.88;;;21.24;47.24
60212;BME280;46079;48.686;15.598;2023-05-08T08:20:48;100701.97;;;21.24;47.31
60212;BME280;46079;48.686;15.598;2023-05-08T08:23:13;100709.03;;;21.23;47.21
60212;BME280;46079;48.686;15.598;2023-05-08T08:25:39;100701.88;;;21.25;47.22
60212;BME280;46079;48.686;15.598;2023-05-08T08:28:04;100707.13;;;21.25;47.33
60212;BME280;46079;48.686;15.598;2023-05-08T08:30:29;100701.88;;;21.25;47.43
60212;BME280;46079;48.686;15.598;2023-05-08T08:32:55;100690.47;;;21.25;47.37
60212;BME280;46079;48.686;15.598;2023-05-08T08:35:20;100704.50;;;21.25;47.17
60212;BME280;46079;48.686;15.598;2023-05-08T08:37:53;100694.91;;;21.24;47.21
60212;BME280;46079;48.686;15.598;2023-05-08T08:40:18;100691.34;;;21.25;46.59
60212;BME280;46079;48.686;15.598;2023-05-08T08:42:44;100701.16;;;21.23;46.55
60212;BME280;46079;48.686;15.598;2023-05-08T08:45:11;100689.78;;;21.23;46.02
60212;BME280;46079;48.686;15.598;2023-05-08T08:47:36;100689.91;;;21.21;46.35
60212;BME280;46079;48.686;15.598;2023-05-08T08:50:07;100689.78;;;21.23;46.18
60212;BME280;46079;48.686;15.598;2023-05-08T08:52:55;100684.63;;;21.21;46.47
60212;BME280;46079;48.686;15.598;2023-05-08T08:55:25;100693.50;;;21.20;46.34
60212;BME280;46079;48.686;15.598;2023-05-08T08:58:11;100687.38;;;21.20;46.27
60212;BME280;46079;48.686;15.598;2023-05-08T09:00:39;100700.69;;;21.18;46.38
60212;BME280;46079;48.686;15.598;2023-05-08T09:03:05;100694.59;;;21.18;46.39
60212;BME280;46079;48.686;15.598;2023-05-08T09:05:32;100693.03;;;21.15;46.45
60212;BME280;46079;48.686;15.598;2023-05-08T09:07:58;100691.22;;;21.16;46.52
60212;BME280;46079;48.686;15.598;2023-05-08T09:10:24;100696.59;;;21.14;46.28
60212;BME280;46079;48.686;15.598;2023-05-08T09:12:50;100691.34;;;21.14;46.57
60212;BME280;46079;48.686;15.598;2023-05-08T09:15:15;100692.31;;;21.13;46.50
60212;BME280;46079;48.686;15.598;2023-05-08T09:17:43;100691.47;;;21.13;46.49
60212;BME280;46079;48.686;15.598;2023-05-08T09:20:10;100693.28;;;21.12;46.43
60212;BME280;46079;48.686;15.598;2023-05-08T09:22:36;100690.66;;;21.12;46.25
60212;BME280;46079;48.686;15.598;2023-05-08T09:25:02;100698.53;;;21.12;46.53
60212;BME280;46079;48.686;15.598;2023-05-08T09:27:29;100693.41;;;21.10;46.54
60212;BME280;46079;48.686;15.598;2023-05-08T09:30:08;100692.56;;;21.10;46.71
60212;BME280;46079;48.686;15.598;2023-05-08T09:32:40;100691.75;;;21.09;46.42
60212;BME280;46079;48.686;15.598;2023-05-08T09:35:07;100689.94;;;21.10;46.47
60212;BME280;46079;48.686;15.598;2023-05-08T09:37:33;100689.09;;;21.09;46.31
60212;BME280;46079;48.686;15.598;2023-05-08T09:40:19;100684.78;;;21.08;46.54
60212;BME280;46079;48.686;15.598;2023-05-08T09:42:45;100690.91;;;21.09;46.50
60212;BME280;46079;48.686;15.598;2023-05-08T09:45:25;100677.88;;;21.07;46.75
60212;BME280;46079;48.686;15.598;2023-05-08T09:47:51;100683.13;;;21.07;46.58
60212;BME280;46079;48.686;15.598;2023-05-08T09:50:16;100680.50;;;21.07;46.63
60212;BME280;46079;48.686;15.598;2023-05-08T09:52:46;100681.31;;;21.08;46.56
60212;BME280;46079;48.686;15.598;2023-05-08T09:55:12;100679.66;;;21.07;46.59
60212;BME280;46079;48.686;15.598;2023-05-08T09:57:40;100682.28;;;21.07;46.61
60212;BME280;46079;48.686;15.598;2023-05-08T10:00:15;100670.94;;;21.06;46.73
60212;BME280;46079;48.686;15.598;2023-05-08T10:02:53;100676.22;;;21.06;46.63
60212;BME280;46079;48.686;15.598;2023-05-08T10:07:48;100671.88;;;21.05;46.81
60212;BME280;46079;48.686;15.598;2023-05-08T10:10:21;100674.66;;;21.04;46.92
60212;BME280;46079;48.686;15.598;2023-05-08T10:12:47;100669.25;;;21.05;46.77
60212;BME280;46079;48.686;15.598;2023-05-08T10:15:13;100666.63;;;21.05;46.85
60212;BME280;46079;48.686;15.598;2023-05-08T10:17:46;100669.41;;;21.04;46.78
60212;BME280;46079;48.686;15.598;2023-05-08T10:20:14;100666.75;;;21.04;47.12
60212;BME280;46079;48.686;15.598;2023-05-08T10:22:44;100668.44;;;21.05;46.75
60212;BME280;46079;48.686;15.598;2023-05-08T10:25:15;100661.50;;;21.04;46.88
60212;BME280;46079;48.686;15.598;2023-05-08T10:27:54;100653.72;;;21.02;46.71
60212;BME280;46079;48.686;15.598;2023-05-08T10:30:25;100654.56;;;21.03;46.85
60212;BME280;46079;48.686;15.598;2023-05-08T10:32:52;100652.91;;;21.02;46.80
60212;BME280;46079;48.686;15.598;2023-05-08T10:35:20;100652.91;;;21.02;46.76
60212;BME280;46079;48.686;15.598;2023-05-08T10:37:47;100637.13;;;21.02;46.75
60212;BME280;46079;48.686;15.598;2023-05-08T10:40:12;100635.47;;;21.01;46.88
60212;BME280;46079;48.686;15.598;2023-05-08T10:42:40;100626.69;;;21.00;46.88
60212;BME280;46079;48.686;15.598;2023-05-08T10:45:07;100636.28;;;21.01;46.90
60212;BME280;46079;48.686;15.598;2023-05-08T10:52:50;100617.97;;;21.00;47.01
60212;BME280;46079;48.686;15.598;2023-05-08T10:55:22;100617.97;;;21.00;47.00
60212;BME280;46079;48.686;15.598;2023-05-08T11:03:28;100612.72;;;21.00;47.01
60212;BME280;46079;48.686;15.598;2023-05-08T11:05:55;100613.69;;;20.99;47.12
60212;BME280;46079;48.686;15.598;2023-05-08T11:08:26;100603.19;;;20.99;47.22
60212;BME280;46079;48.686;15.598;2023-05-08T11:13:27;100610.09;;;21.00;47.33
60212;BME280;46079;48.686;15.598;2023-05-08T11:15:52;100610.09;;;21.00;47.31
60212;BME280;46079;48.686;15.598;2023-05-08T11:18:18;100606.63;;;20.99;47.19
60212;BME280;46079;48.686;15.598;2023-05-08T11:20:58;100595.28;;;20.99;47.15
60212;BME280;46079;48.686;15.598;2023-05-08T11:23:28;100609.38;;;20.98;47.29
60212;BME280;46079;48.686;15.598;2023-05-08T11:26:05;100598.84;;;20.98;47.13
60212;BME280;46079;48.686;15.598;2023-05-08T11:28:38;100590.97;;;20.98;47.26
60212;BME280;46079;48.686;15.598;2023-05-08T11:31:07;100594.56;;;20.97;47.30
60212;BME280;46079;48.686;15.598;2023-05-08T11:33:34;100591.94;;;20.97;47.23
60212;BME280;46079;48.686;15.598;2023-05-08T11:36:16;100584.03;;;20.97;47.14
60212;BME280;46079;48.686;15.598;2023-05-08T11:39:08;100577.97;;;20.96;47.21
60212;BME280;46079;48.686;15.598;2023-05-08T11:41:37;100591.94;;;20.97;47.30
60212;BME280;46079;48.686;15.598;2023-05-08T11:49:03;100582.38;;;20.96;47.11
60212;BME280;46079;48.686;15.598;2023-05-08T11:51:32;100584.19;;;20.95;46.99
60212;BME280;46079;48.686;15.598;2023-05-08T11:53:58;100576.31;;;20.95;45.88
60212;BME280;46079;48.686;15.598;2023-05-08T11:56:24;100578.06;;;20.95;45.74
60212;BME280;46079;48.686;15.598;2023-05-08T11:59:07;100583.31;;;20.95;45.72
60212;BME280;46079;48.686;15.598;2023-05-08T12:01:36;100579.03;;;20.94;45.28
60212;BME280;46079;48.686;15.598;2023-05-08T12:04:06;100578.31;;;20.92;45.36
60212;BME280;46079;48.686;15.598;2023-05-08T12:06:33;100574.75;;;20.93;45.41
60212;BME280;46079;48.686;15.598;2023-05-08T12:09:00;100570.44;;;20.92;44.87
60212;BME280;46079;48.686;15.598;2023-05-08T12:11:26;100574.75;;;20.93;44.43
60212;BME280;46079;48.686;15.598;2023-05-08T12:13:52;100576.66;;;20.91;44.15
60212;BME280;46079;48.686;15.598;2023-05-08T12:16:18;100574.03;;;20.91;44.00
60212;BME280;46079;48.686;15.598;2023-05-08T12:18:48;100569.72;;;20.90;44.66
60212;BME280;46079;48.686;15.598;2023-05-08T12:21:14;100573.22;;;20.90;44.15
60212;BME280;46079;48.686;15.598;2023-05-08T12:23:40;100581.22;;;20.88;44.22
60212;BME280;46079;48.686;15.598;2023-05-08T12:26:07;100574.16;;;20.89;44.01
60212;BME280;46079;48.686;15.598;2023-05-08T12:28:32;100577.59;;;20.90;44.01
60212;BME280;46079;48.686;15.598;2023-05-08T12:30:58;100582.19;;;20.87;44.47
60212;BME280;46079;48.686;15.598;2023-05-08T12:33:24;100580.50;;;20.86;43.86
60212;BME280;46079;48.686;15.598;2023-05-08T12:35:50;100572.59;;;20.86;44.04
60212;BME280;46079;48.686;15.598;2023-05-08T12:38:15;100570.94;;;20.85;44.23
60212;BME280;46079;48.686;15.598;2023-05-08T12:40:45;100570.13;;;20.85;44.01
60212;BME280;46079;48.686;15.598;2023-05-08T12:43:13;100570.13;;;20.85;43.93
60212;BME280;46079;48.686;15.598;2023-05-08T12:45:40;100567.47;;;20.85;43.76
60212;BME280;46079;48.686;15.598;2023-05-08T12:48:10;100569.50;;;20.81;43.62
60212;BME280;46079;48.686;15.598;2023-05-08T12:50:41;100569.75;;;20.78;43.13
60212;BME280;46079;48.686;15.598;2023-05-08T12:53:09;100560.31;;;20.76;42.40
60212;BME280;46079;48.686;15.598;2023-05-08T12:55:36;100559.63;;;20.74;42.35
60212;BME280;46079;48.686;15.598;2023-05-08T12:58:08;100557.00;;;20.74;42.42
60212;BME280;46079;48.686;15.598;2023-05-08T13:00:40;100547.44;;;20.73;42.85
60212;BME280;46079;48.686;15.598;2023-05-08T13:03:07;100547.56;;;20.71;42.52
60212;BME280;46079;48.686;15.598;2023-05-08T13:05:41;100542.31;;;20.71;42.56
60212;BME280;46079;48.686;15.598;2023-05-08T13:08:07;100549.38;;;20.71;42.67
60212;BME280;46079;48.686;15.598;2023-05-08T13:10:52;100542.31;;;20.71;42.32
60212;BME280;46079;48.686;15.598;2023-05-08T13:13:22;100535.38;;;20.70;42.99
60212;BME280;46079;48.686;15.598;2023-05-08T13:15:49;100543.25;;;20.70;43.11
60212;BME280;46079;48.686;15.598;2023-05-08T13:18:16;100544.22;;;20.69;42.49
60212;BME280;46079;48.686;15.598;2023-05-08T13:20:42;100535.63;;;20.67;43.00
60212;BME280;46079;48.686;15.598;2023-05-08T13:23:08;100526.91;;;20.67;42.32
60212;BME280;46079;48.686;15.598;2023-05-08T13:25:37;100526.06;;;20.66;42.17
60212;BME280;46079;48.686;15.598;2023-05-08T13:28:04;100528.72;;;20.66;42.06
60212;BME280;46079;48.686;15.598;2023-05-08T13:30:30;100529.66;;;20.65;42.40
60212;BME280;46079;48.686;15.598;2023-05-08T13:32:56;100521.66;;;20.67;42.07
60212;BME280;46079;48.686;15.598;2023-05-08T13:35:24;100517.38;;;20.65;42.42
60212;BME280;46079;48.686;15.598;2023-05-08T13:37:50;100520.81;;;20.66;42.38
60212;BME280;46079;48.686;15.598;2023-05-08T13:40:16;100522.47;;;20.67;42.15
60212;BME280;46079;48.686;15.598;2023-05-08T13:42:42;100520.81;;;20.66;41.93